Time;durP1;ratioP1;P1;durP2;ratioP2;P2;SDS_P1;SDS_P2;PMS_P1;PMS_P2;Temp;Humidity;BMP_temperature;BMP_pressure;BME280_temperature;BME280_humidity;BME280_pressure;Samples;Min_cycle;Max_cycle;Signal;HPM_P1;HPM_P2
2021/03/08 00:00:27;;;;;;;23.50;15.10;;;;;;;2.33;51.28;96855.75;5071928;28;20194;-67
2021/03/08 00:02:54;;;;;;;24.63;15.30;;;;;;;2.29;51.02;96853.38;5071923;28;20486;-66
2021/03/08 00:05:20;;;;;;;22.33;13.30;;;;;;;2.12;51.66;96858.94;5053102;28;20421;-68
2021/03/08 00:07:46;;;;;;;22.57;13.87;;;;;;;2.16;51.88;96873.28;5069654;28;20436;-67
2021/03/08 00:10:13;;;;;;;20.47;13.43;;;;;;;2.09;52.53;96869.50;5064477;28;20224;-66
2021/03/08 00:12:39;;;;;;;19.20;13.60;;;;;;;2.22;52.11;96867.69;5054158;28;20417;-67
2021/03/08 00:15:06;;;;;;;19.40;13.20;;;;;;;2.15;52.84;96871.63;5071270;28;20435;-66
2021/03/08 00:17:32;;;;;;;21.57;14.00;;;;;;;2.11;52.93;96865.03;5071540;28;20641;-68
2021/03/08 00:19:58;;;;;;;21.80;13.47;;;;;;;1.99;53.13;96864.13;5063844;28;20539;-67
2021/03/08 00:22:23;;;;;;;24.73;14.47;;;;;;;1.70;53.28;96869.56;5071145;28;20428;-67
2021/03/08 00:24:49;;;;;;;23.77;14.27;;;;;;;1.53;53.94;96866.38;5063418;28;20209;-68
2021/03/08 00:27:15;;;;;;;21.17;13.83;;;;;;;1.56;53.51;96872.25;5072917;28;20656;-69
2021/03/08 00:29:40;;;;;;;23.77;14.27;;;;;;;1.59;54.29;96870.28;5073779;28;20206;-68
2021/03/08 00:32:07;;;;;;;22.57;12.73;;;;;;;1.65;53.64;96872.44;5070908;28;20194;-67
2021/03/08 00:34:34;;;;;;;22.60;14.57;;;;;;;1.47;54.61;96865.97;5068377;28;20668;-68
2021/03/08 00:37:00;;;;;;;22.30;13.30;;;;;;;1.88;54.29;96867.47;5057148;28;20494;-66
2021/03/08 00:39:25;;;;;;;24.77;14.83;;;;;;;1.85;53.93;96870.25;5075905;28;20452;-68
2021/03/08 00:41:51;;;;;;;27.83;15.87;;;;;;;1.95;54.22;96860.94;5066175;28;20274;-67
2021/03/08 00:44:17;;;;;;;24.97;16.30;;;;;;;1.72;55.75;96866.88;5076476;28;20196;-67
2021/03/08 00:46:42;;;;;;;23.60;15.10;;;;;;;1.54;56.24;96872.34;5075278;28;20668;-68
2021/03/08 00:49:08;;;;;;;23.40;15.67;;;;;;;1.61;56.24;96858.09;5070578;28;20195;-67
2021/03/08 00:51:34;;;;;;;24.43;16.23;;;;;;;1.45;56.58;96863.47;5069662;28;20181;-67
2021/03/08 00:54:00;;;;;;;24.07;16.03;;;;;;;1.46;56.52;96862.53;5073869;28;20243;-70
2021/03/08 00:56:25;;;;;;;24.40;14.90;;;;;;;1.50;56.23;96860.59;5051938;28;20221;-67
2021/03/08 00:58:51;;;;;;;29.17;15.50;;;;;;;1.61;56.37;96855.53;5073899;28;20257;-67
2021/03/08 01:01:17;;;;;;;22.47;15.47;;;;;;;1.76;55.23;96855.41;5075794;28;20193;-67
2021/03/08 01:03:42;;;;;;;22.87;14.90;;;;;;;1.68;54.92;96843.81;5074940;28;20190;-69
2021/03/08 01:06:08;;;;;;;22.50;14.87;;;;;;;1.94;53.97;96845.53;5073702;28;20181;-70
2021/03/08 01:08:34;;;;;;;27.50;15.00;;;;;;;1.95;53.63;96844.63;5073462;28;20186;-66
2021/03/08 01:11:00;;;;;;;23.07;14.40;;;;;;;1.70;53.62;96843.72;5072281;28;20252;-66
2021/03/08 01:13:25;;;;;;;23.10;14.60;;;;;;;2.02;53.48;96847.59;5069088;28;20413;-67
2021/03/08 01:15:51;;;;;;;20.17;13.50;;;;;;;2.20;52.83;96841.13;5068234;28;20293;-67
2021/03/08 01:18:21;;;;;;;21.67;14.20;;;;;;;2.16;52.73;96847.44;5073696;28;20206;-70
2021/03/08 01:20:47;;;;;;;21.50;13.50;;;;;;;1.71;53.13;96841.97;5077973;28;20568;-67
2021/03/08 01:23:13;;;;;;;19.17;12.97;;;;;;;1.89;52.55;96840.66;5075738;28;20429;-67
2021/03/08 01:25:39;;;;;;;20.10;13.60;;;;;;;2.02;51.95;96838.06;5059343;28;20451;-67
2021/03/08 01:28:06;;;;;;;22.77;14.73;;;;;;;1.71;52.42;96836.78;5072431;28;20840;-66
2021/03/08 01:30:39;;;;;;;23.30;13.97;;;;;;;1.86;51.57;96838.31;5074055;28;20441;-65
2021/03/08 01:33:06;;;;;;;24.50;13.27;;;;;;;1.74;52.28;96836.59;5072527;28;20456;-67
2021/03/08 01:35:32;;;;;;;22.00;12.60;;;;;;;1.92;51.39;96830.13;5071961;28;20873;-66
2021/03/08 01:37:58;;;;;;;24.57;13.40;;;;;;;2.24;50.30;96827.03;5065620;28;20427;-68
2021/03/08 01:40:26;;;;;;;22.30;12.77;;;;;;;2.44;49.82;96830.78;5073273;28;20887;-67
2021/03/08 01:42:52;;;;;;;23.60;12.80;;;;;;;2.64;49.86;96817.34;5065566;28;20471;-66
2021/03/08 01:45:19;;;;;;;19.40;12.03;;;;;;;2.72;49.32;96817.59;5071882;28;20930;-67
2021/03/08 01:47:46;;;;;;;19.33;12.20;;;;;;;2.80;48.85;96817.03;5073130;28;20822;-67
2021/03/08 01:50:18;;;;;;;20.17;12.90;;;;;;;2.46;49.51;96817.72;5073668;28;20451;-66
2021/03/08 01:52:44;;;;;;;19.33;12.90;;;;;;;2.04;50.76;96815.53;5073867;28;20424;-69
2021/03/08 01:55:13;;;;;;;20.00;13.37;;;;;;;1.90;51.05;96815.66;5056317;28;20433;-67
2021/03/08 01:57:39;;;;;;;17.83;12.03;;;;;;;1.90;51.42;96824.22;5072206;28;20427;-67
2021/03/08 02:00:06;;;;;;;17.70;12.40;;;;;;;2.03;50.75;96815.63;5073137;28;20449;-66
2021/03/08 02:02:32;;;;;;;19.80;11.50;;;;;;;2.12;50.05;96818.38;5072010;28;20452;-68
2021/03/08 02:04:59;;;;;;;21.60;12.93;;;;;;;2.01;50.03;96815.75;5072659;28;20432;-68
2021/03/08 02:07:24;;;;;;;21.17;12.80;;;;;;;1.84;50.46;96824.69;5071699;28;20507;-66
2021/03/08 02:09:50;;;;;;;17.87;12.30;;;;;;;1.67;51.22;96815.53;5073004;28;20889;-68
2021/03/08 02:12:33;;;;;;;19.53;12.97;;;;;;;1.69;51.13;96816.25;5073752;28;20641;-68
2021/03/08 02:15:23;;;;;;;18.50;12.37;;;;;;;1.47;51.67;96814.31;5064643;28;20178;-67
2021/03/08 02:17:59;;;;;;;23.03;13.47;;;;;;;1.38;51.56;96814.00;5072017;28;20453;-67
2021/03/08 02:20:58;;;;;;;21.40;12.50;;;;;;;1.62;51.01;96808.09;5069285;28;20508;-66
2021/03/08 02:23:45;;;;;;;18.13;12.20;;;;;;;1.45;50.91;96819.56;5061761;28;20450;-68
2021/03/08 02:26:24;;;;;;;17.83;12.03;;;;;;;1.41;51.16;96818.13;5069437;28;20409;-67
2021/03/08 02:29:09;;;;;;;21.50;11.47;;;;;;;1.71;49.92;96816.13;5076388;28;20420;-67
2021/03/08 02:31:34;;;;;;;24.43;12.70;;;;;;;1.53;50.56;96814.72;5074831;28;20412;-67
2021/03/08 02:34:06;;;;;;;17.83;11.70;;;;;;;1.26;51.40;96811.41;5070604;28;20428;-66
2021/03/08 02:36:35;;;;;;;25.63;13.20;;;;;;;1.28;51.65;96814.72;5068261;28;20476;-68
2021/03/08 02:39:14;;;;;;;21.40;12.53;;;;;;;1.21;52.21;96815.13;5076208;28;20421;-65
2021/03/08 02:41:40;;;;;;;21.03;13.10;;;;;;;1.05;52.13;96814.53;5077154;28;20439;-70
2021/03/08 02:44:09;;;;;;;20.40;12.90;;;;;;;1.06;52.48;96819.56;5077744;28;20433;-68
2021/03/08 02:46:37;;;;;;;19.47;13.40;;;;;;;1.15;52.83;96810.41;5068197;28;20412;-67
2021/03/08 02:49:07;;;;;;;22.30;12.60;;;;;;;1.03;52.64;96804.28;5047489;28;20444;-68
2021/03/08 02:51:37;;;;;;;19.03;13.00;;;;;;;1.12;52.68;96809.78;5071208;28;20431;-66
2021/03/08 02:54:04;;;;;;;20.27;12.97;;;;;;;1.28;52.85;96810.38;5071246;28;21009;-67
2021/03/08 02:56:34;;;;;;;20.40;13.77;;;;;;;1.25;53.20;96804.59;5066099;28;20572;-67
2021/03/08 02:59:01;;;;;;;19.67;13.67;;;;;;;0.91;53.97;96802.53;5065447;28;20440;-68
2021/03/08 03:01:28;;;;;;;20.73;14.07;;;;;;;0.82;54.86;96803.13;5057207;28;20416;-66
2021/03/08 03:03:55;;;;;;;23.10;14.20;;;;;;;1.04;54.19;96798.19;5070049;28;20963;-67
2021/03/08 03:06:24;;;;;;;25.67;15.03;;;;;;;1.09;53.80;96799.66;5070274;28;20424;-68
2021/03/08 03:08:50;;;;;;;20.37;13.20;;;;;;;1.11;53.74;96795.22;5072010;28;20451;-66
2021/03/08 03:11:16;;;;;;;19.70;13.83;;;;;;;1.33;52.98;96803.16;5071129;28;20932;-66
2021/03/08 03:13:43;;;;;;;23.97;13.87;;;;;;;1.45;52.78;96793.72;5062778;28;20705;-69
2021/03/08 03:16:10;;;;;;;21.40;12.67;;;;;;;1.57;52.55;96794.66;5070144;28;20349;-65
2021/03/08 03:18:37;;;;;;;22.77;13.53;;;;;;;0.92;53.65;96796.44;5071553;28;20435;-69
2021/03/08 03:21:05;;;;;;;22.80;14.43;;;;;;;0.63;55.34;96799.16;5053263;28;20443;-66
2021/03/08 03:23:33;;;;;;;20.70;13.23;;;;;;;0.72;55.13;96803.75;5063606;28;20773;-67
2021/03/08 03:26:00;;;;;;;19.97;14.53;;;;;;;0.41;56.34;96815.22;5062155;28;20433;-66
2021/03/08 03:28:27;;;;;;;20.13;13.87;;;;;;;0.48;55.73;96813.09;5070140;28;20501;-66
2021/03/08 03:30:53;;;;;;;20.07;14.00;;;;;;;0.97;54.51;96807.28;5070586;28;20443;-68
2021/03/08 03:33:19;;;;;;;22.07;14.40;;;;;;;0.72;55.32;96808.91;5070273;28;20556;-68
2021/03/08 03:35:46;;;;;;;19.90;13.93;;;;;;;0.83;55.19;96807.38;5064974;28;20554;-67
2021/03/08 03:38:13;;;;;;;21.63;13.50;;;;;;;0.85;55.36;96810.69;5062128;28;20439;-67
2021/03/08 03:40:39;;;;;;;25.03;15.23;;;;;;;0.82;55.74;96808.28;5071027;28;20950;-66
2021/03/08 03:43:04;;;;;;;21.00;14.90;;;;;;;0.88;55.36;96813.88;5070534;28;20455;-66
2021/03/08 03:45:30;;;;;;;23.57;14.90;;;;;;;0.68;56.05;96817.78;5070635;28;20295;-67
2021/03/08 03:47:56;;;;;;;23.10;14.80;;;;;;;0.80;55.61;96820.47;5070806;28;20299;-67
2021/03/08 03:50:24;;;;;;;22.37;14.13;;;;;;;0.61;56.25;96821.69;5070683;28;20218;-68
2021/03/08 03:52:49;;;;;;;23.63;14.20;;;;;;;0.74;55.77;96819.97;5061576;28;20190;-66
2021/03/08 03:55:18;;;;;;;23.17;14.77;;;;;;;0.72;56.03;96819.22;5063339;28;20425;-66
2021/03/08 03:57:43;;;;;;;25.43;14.67;;;;;;;0.66;56.11;96829.94;5071534;28;20257;-69
2021/03/08 04:00:10;;;;;;;24.43;15.10;;;;;;;0.46;56.56;96838.94;5058296;28;20446;-67
2021/03/08 04:02:46;;;;;;;28.17;16.33;;;;;;;0.48;56.69;96846.59;5073839;28;20188;-68
2021/03/08 04:05:17;;;;;;;24.27;15.60;;;;;;;0.44;57.46;96840.81;5044531;28;20424;-67
2021/03/08 04:07:44;;;;;;;24.17;15.13;;;;;;;0.10;58.44;96842.94;5071440;28;20456;-65
2021/03/08 04:10:11;;;;;;;24.73;16.13;;;;;;;0.09;58.33;96851.59;5056662;28;20980;-66
2021/03/08 04:12:37;;;;;;;22.80;14.80;;;;;;;0.34;57.84;96845.72;5059762;28;20559;-67
2021/03/08 04:15:08;;;;;;;27.63;16.60;;;;;;;0.47;57.49;96860.44;5053873;28;20423;-66
2021/03/08 04:17:35;;;;;;;28.63;16.27;;;;;;;0.55;57.43;96855.59;5058863;28;20442;-68
2021/03/08 04:20:01;;;;;;;23.53;15.47;;;;;;;0.56;57.14;96859.81;5054490;28;20477;-67
2021/03/08 04:22:28;;;;;;;23.50;15.23;;;;;;;0.47;57.15;96863.00;5060121;28;21174;-67
2021/03/08 04:24:56;;;;;;;28.83;15.33;;;;;;;0.40;58.13;96860.00;5052394;28;20418;-66
2021/03/08 04:27:22;;;;;;;28.30;16.57;;;;;;;0.27;58.22;96860.75;5041818;28;20410;-68
2021/03/08 04:29:48;;;;;;;25.27;16.23;;;;;;;-0.21;59.50;96863.69;5062582;28;20437;-67
2021/03/08 04:32:15;;;;;;;26.47;16.60;;;;;;;-0.30;60.50;96872.00;5053795;28;20416;-66
2021/03/08 04:34:41;;;;;;;25.27;17.20;;;;;;;-0.36;60.87;96865.47;5053828;28;20205;-66
2021/03/08 04:37:07;;;;;;;26.33;16.80;;;;;;;-0.23;60.48;96868.09;5053490;28;20485;-68
2021/03/08 04:39:35;;;;;;;30.27;17.23;;;;;;;0.02;59.72;96865.78;5053306;28;20524;-64
2021/03/08 04:42:02;;;;;;;28.73;17.03;;;;;;;-0.07;59.83;96862.88;5052755;28;20925;-65
2021/03/08 04:44:28;;;;;;;26.57;17.63;;;;;;;-0.36;60.90;96870.63;5054915;28;20443;-66
2021/03/08 04:46:54;;;;;;;29.73;17.83;;;;;;;-0.34;60.39;96873.09;5053735;28;20765;-67
2021/03/08 04:49:20;;;;;;;25.40;16.67;;;;;;;-0.15;60.36;96875.38;5052211;28;21105;-67
2021/03/08 04:51:47;;;;;;;30.90;18.87;;;;;;;-0.34;61.15;96873.94;5052233;28;20188;-64
2021/03/08 04:54:14;;;;;;;30.90;16.67;;;;;;;-0.18;60.56;96876.41;5053853;28;20182;-70
2021/03/08 04:56:41;;;;;;;31.03;17.43;;;;;;;-0.06;60.14;96881.72;5054367;28;20524;-69
2021/03/08 04:59:07;;;;;;;27.87;17.87;;;;;;;0.02;60.27;96886.41;5055144;28;20451;-70
2021/03/08 05:01:34;;;;;;;30.97;18.40;;;;;;;0.06;59.58;96885.31;5056267;28;20436;-71
2021/03/08 05:04:02;;;;;;;25.50;15.60;;;;;;;0.10;59.35;96885.03;5063852;28;20188;-66
2021/03/08 05:06:29;;;;;;;30.37;17.43;;;;;;;0.31;59.20;96884.59;5058601;28;20470;-69
2021/03/08 05:08:56;;;;;;;29.50;17.77;;;;;;;0.26;59.17;96890.03;5035076;28;20885;-67
2021/03/08 05:11:22;;;;;;;26.73;18.07;;;;;;;-0.01;59.62;96887.44;5052669;28;20419;-68
2021/03/08 05:13:49;;;;;;;30.07;17.13;;;;;;;-0.10;60.34;96893.13;5041134;28;20513;-68
2021/03/08 05:16:17;;;;;;;28.90;18.03;;;;;;;-0.17;60.58;96893.50;5057309;28;20451;-66
2021/03/08 05:18:45;;;;;;;30.17;17.87;;;;;;;0.03;60.14;96894.03;5040262;28;20444;-68
2021/03/08 05:21:13;;;;;;;31.13;18.17;;;;;;;0.13;59.43;96897.69;5058929;28;20441;-66
2021/03/08 05:23:40;;;;;;;28.00;18.10;;;;;;;-0.03;59.97;96904.72;5072803;28;20432;-68
2021/03/08 05:26:07;;;;;;;28.00;17.10;;;;;;;-0.28;60.48;96895.06;5056115;28;20420;-66
2021/03/08 05:28:33;;;;;;;27.20;17.70;;;;;;;-0.34;61.01;96901.41;5022813;28;20512;-65
2021/03/08 05:30:59;;;;;;;35.13;18.63;;;;;;;-0.37;61.31;96897.28;5052960;28;20439;-66
2021/03/08 05:33:27;;;;;;;33.63;19.20;;;;;;;-0.42;61.19;96894.13;5052367;28;20424;-67
2021/03/08 05:35:55;;;;;;;29.90;18.47;;;;;;;-0.37;61.23;96896.44;5050313;28;20462;-65
2021/03/08 05:38:22;;;;;;;28.80;18.60;;;;;;;-0.36;61.25;96900.66;5052873;28;20478;-65
2021/03/08 05:41:11;;;;;;;29.50;19.60;;;;;;;-0.28;61.07;96893.34;5053554;28;20943;-65
2021/03/08 05:43:37;;;;;;;29.50;19.17;;;;;;;-0.13;60.69;96904.47;5050879;28;20534;-64
2021/03/08 05:46:09;;;;;;;31.13;19.03;;;;;;;-0.24;61.35;96907.66;5053523;28;20508;-64
2021/03/08 05:49:09;;;;;;;32.30;19.70;;;;;;;-0.23;60.75;96904.16;5051413;28;20421;-66
2021/03/08 05:51:54;;;;;;;35.03;18.37;;;;;;;-0.22;60.65;96903.25;5054072;28;20411;-65
2021/03/08 05:54:39;;;;;;;28.27;18.33;;;;;;;-0.25;61.06;96913.72;5047844;28;20428;-66
2021/03/08 05:57:12;;;;;;;36.13;20.00;;;;;;;-0.13;60.52;96912.19;5051302;28;20839;-65
2021/03/08 06:00:03;;;;;;;33.73;19.33;;;;;;;-0.04;60.65;96908.22;5035221;28;20504;-64
2021/03/08 06:02:54;;;;;;;30.87;18.00;;;;;;;-0.02;60.41;96914.94;5052010;28;20807;-66
2021/03/08 06:05:47;;;;;;;31.30;18.37;;;;;;;0.11;60.55;96914.19;5043805;28;20412;-67
2021/03/08 06:08:46;;;;;;;39.00;20.13;;;;;;;0.17;60.29;96920.72;5052675;28;20395;-65
2021/03/08 06:11:15;;;;;;;29.63;18.20;;;;;;;0.34;59.76;96925.66;5043444;28;20418;-66
2021/03/08 06:13:58;;;;;;;30.50;19.13;;;;;;;0.43;59.94;96925.09;5048744;28;20432;-66
2021/03/08 06:16:33;;;;;;;38.97;21.03;;;;;;;0.82;58.77;96919.25;5051001;28;20455;-67
2021/03/08 06:19:03;;;;;;;33.20;20.07;;;;;;;0.71;58.42;96925.09;5051264;28;20412;-64
2021/03/08 06:21:34;;;;;;;28.50;18.67;;;;;;;0.91;58.08;96927.22;5050617;28;20432;-65
2021/03/08 06:24:00;;;;;;;34.80;20.23;;;;;;;1.07;57.98;96926.25;5052156;28;20966;-66
2021/03/08 06:26:27;;;;;;;30.10;19.40;;;;;;;1.18;57.49;96923.78;5051944;28;20417;-59
2021/03/08 06:28:52;;;;;;;30.90;20.17;;;;;;;1.36;57.10;96920.91;5039413;28;20429;-63
2021/03/08 06:31:21;;;;;;;33.00;20.57;;;;;;;1.23;57.57;96918.31;5052220;28;20416;-62
2021/03/08 06:33:46;;;;;;;31.97;18.60;;;;;;;1.46;57.02;96918.53;5050677;28;20505;-60
2021/03/08 06:36:12;;;;;;;48.63;23.80;;;;;;;1.03;57.94;96914.47;5051955;28;20499;-62
2021/03/08 06:38:38;;;;;;;37.63;20.30;;;;;;;1.42;57.15;96914.50;5060283;28;20925;-64
2021/03/08 06:41:06;;;;;;;33.50;20.00;;;;;;;1.14;57.63;96916.31;5055990;28;20210;-65
2021/03/08 06:43:32;;;;;;;32.60;19.00;;;;;;;1.38;56.88;96919.91;5057221;28;20440;-64
2021/03/08 06:45:58;;;;;;;35.50;19.47;;;;;;;1.45;56.92;96925.44;5092370;28;20408;-61
2021/03/08 06:48:23;;;;;;;51.40;22.60;;;;;;;1.63;56.53;96923.41;5052388;28;20640;-61
2021/03/08 06:51:06;;;;;;;67.63;24.27;;;;;;;1.52;56.53;96939.63;5050314;28;20679;-62
2021/03/08 06:53:31;;;;;;;52.53;23.30;;;;;;;1.74;56.49;96942.53;5051790;28;20639;-62
2021/03/08 06:56:22;;;;;;;49.33;21.33;;;;;;;1.86;55.96;96941.69;5083086;28;20887;-63
2021/03/08 06:59:03;;;;;;;34.07;21.20;;;;;;;2.02;55.79;96948.41;5064344;28;20180;-64
2021/03/08 07:01:32;;;;;;;44.13;21.87;;;;;;;2.25;55.44;96952.00;5074915;28;20481;-61
2021/03/08 07:03:59;;;;;;;36.03;21.47;;;;;;;2.30;54.81;96948.16;5074143;28;20418;-64
2021/03/08 07:06:25;;;;;;;38.00;20.50;;;;;;;2.44;54.70;96954.97;5013655;28;20449;-63
2021/03/08 07:08:51;;;;;;;28.77;19.37;;;;;;;2.58;54.25;96951.38;5037239;28;20954;-62
2021/03/08 07:11:18;;;;;;;29.57;18.00;;;;;;;3.14;53.80;96942.25;5058133;28;20567;-62
2021/03/08 07:13:44;;;;;;;31.03;19.20;;;;;;;3.73;52.45;96948.28;5058813;28;20247;-62
2021/03/08 07:16:10;;;;;;;24.27;16.93;;;;;;;4.02;50.64;96942.66;5062694;28;20449;-62
2021/03/08 07:18:35;;;;;;;26.57;16.60;;;;;;;4.12;50.28;96953.97;5079170;28;20179;-62
2021/03/08 07:21:21;;;;;;;36.20;18.80;;;;;;;4.00;50.42;96955.72;5060624;28;20875;-62
2021/03/08 07:23:50;;;;;;;34.03;17.83;;;;;;;4.09;50.56;96954.19;5053177;28;20190;-63
2021/03/08 07:26:18;;;;;;;24.83;17.07;;;;;;;4.19;50.07;96956.91;5058465;28;20418;-63
2021/03/08 07:29:11;;;;;;;26.57;16.87;;;;;;;4.20;49.30;96957.72;5061248;28;20515;-63
2021/03/08 07:31:43;;;;;;;27.60;16.30;;;;;;;4.14;49.75;96957.28;5060542;28;20429;-62
2021/03/08 07:34:09;;;;;;;30.17;18.10;;;;;;;4.28;48.83;96953.59;5049250;28;20413;-64
2021/03/08 07:36:42;;;;;;;31.63;18.47;;;;;;;4.35;50.02;96953.97;5055112;28;20457;-64
2021/03/08 07:39:17;;;;;;;24.63;17.80;;;;;;;4.20;49.38;96957.72;5063994;28;20418;-62
2021/03/08 07:41:49;;;;;;;25.73;17.50;;;;;;;4.34;48.48;96962.69;5075052;28;20413;-62
2021/03/08 07:44:15;;;;;;;29.47;18.20;;;;;;;4.27;49.33;96961.53;5066453;28;20436;-62
2021/03/08 07:46:41;;;;;;;22.87;16.83;;;;;;;4.18;49.05;96957.88;5055125;28;20418;-64
2021/03/08 07:49:07;;;;;;;25.67;17.13;;;;;;;4.37;49.03;96967.63;5056951;28;20222;-60
2021/03/08 07:51:33;;;;;;;25.53;17.13;;;;;;;4.56;48.89;96976.56;5037821;28;20183;-62
2021/03/08 07:54:00;;;;;;;33.83;17.90;;;;;;;4.28;48.93;96971.78;5055744;28;20522;-61
2021/03/08 07:56:25;;;;;;;44.53;18.37;;;;;;;4.16;49.85;96975.31;5059383;28;20453;-63
2021/03/08 07:58:53;;;;;;;35.93;17.83;;;;;;;4.53;49.12;96982.03;5060239;28;20417;-64
2021/03/08 08:01:20;;;;;;;25.50;16.83;;;;;;;4.06;49.86;96970.00;5069669;28;20426;-63
2021/03/08 08:03:45;;;;;;;25.67;17.00;;;;;;;4.48;48.43;96973.75;5056341;28;20938;-65
2021/03/08 08:06:11;;;;;;;39.73;19.20;;;;;;;4.27;48.69;96982.28;5056146;28;20532;-65
2021/03/08 08:08:38;;;;;;;26.67;18.40;;;;;;;4.29;49.50;96970.00;5056235;28;20265;-62
2021/03/08 08:11:06;;;;;;;30.20;17.80;;;;;;;4.63;48.40;96972.56;5053823;28;20240;-64
2021/03/08 08:13:42;;;;;;;27.03;18.23;;;;;;;4.71;48.02;96975.38;5055969;28;20417;-65
2021/03/08 08:16:10;;;;;;;35.37;18.80;;;;;;;4.75;48.19;96975.94;5054880;28;20819;-63
2021/03/08 08:18:38;;;;;;;27.37;17.80;;;;;;;4.89;47.44;96977.47;5055309;28;20764;-64
2021/03/08 08:21:04;;;;;;;24.00;17.70;;;;;;;4.89;47.55;96985.25;5054322;28;20453;-61
2021/03/08 08:23:39;;;;;;;34.43;18.87;;;;;;;4.98;47.78;96981.94;5054807;28;20432;-63
2021/03/08 08:26:10;;;;;;;27.83;19.20;;;;;;;3.30;51.47;96988.56;5052743;28;20421;-64
2021/03/08 08:28:38;;;;;;;40.60;19.83;;;;;;;3.93;51.04;96996.03;5055437;28;20422;-62
2021/03/08 08:31:04;;;;;;;32.90;20.43;;;;;;;4.57;49.90;96989.44;5052670;28;20484;-63
2021/03/08 08:33:31;;;;;;;80.87;21.93;;;;;;;4.64;49.54;96987.19;5054098;28;20421;-63
2021/03/08 08:36:14;;;;;;;31.77;18.30;;;;;;;4.75;49.11;96987.19;5052974;28;20203;-63
2021/03/08 08:38:53;;;;;;;32.37;18.70;;;;;;;4.99;49.23;96982.72;5049727;28;20414;-62
2021/03/08 08:41:23;;;;;;;34.13;17.63;;;;;;;5.08;48.25;96982.84;5057184;28;20871;-62
2021/03/08 08:44:07;;;;;;;30.33;18.60;;;;;;;5.03;47.90;96977.19;5055310;28;20429;-63
2021/03/08 08:46:36;;;;;;;31.17;19.53;;;;;;;4.51;48.53;96992.50;5053081;28;20621;-62
2021/03/08 08:49:13;;;;;;;30.13;19.43;;;;;;;5.28;47.76;96979.56;5052900;28;20417;-64
2021/03/08 08:51:55;;;;;;;28.73;20.07;;;;;;;5.54;46.36;96993.06;5049685;28;20427;-63
2021/03/08 08:54:27;;;;;;;30.00;19.60;;;;;;;5.44;46.64;96982.59;5051442;28;20512;-65
2021/03/08 08:56:58;;;;;;;26.63;18.60;;;;;;;5.84;45.51;96983.66;5052068;28;20458;-61
2021/03/08 08:59:25;;;;;;;26.43;19.57;;;;;;;4.27;49.31;96990.06;5052904;28;20434;-64
2021/03/08 09:01:50;;;;;;;27.20;20.10;;;;;;;4.49;48.80;96991.00;5052329;28;20417;-64
2021/03/08 09:04:17;;;;;;;26.23;18.57;;;;;;;4.90;48.68;96990.31;5051658;28;20994;-64
2021/03/08 09:06:47;;;;;;;44.00;18.70;;;;;;;5.36;47.37;96990.16;5050881;28;20521;-63
2021/03/08 09:09:17;;;;;;;36.13;19.00;;;;;;;4.62;48.50;96989.09;5045414;28;20854;-64
2021/03/08 09:11:58;;;;;;;25.37;18.00;;;;;;;5.60;46.10;96983.94;5050278;28;20990;-62
2021/03/08 09:14:36;;;;;;;31.43;18.80;;;;;;;5.64;46.04;96980.09;5050889;28;20421;-63
2021/03/08 09:17:27;;;;;;;24.10;17.67;;;;;;;5.50;45.89;96989.06;5052164;28;20925;-63
2021/03/08 09:19:55;;;;;;;28.10;18.97;;;;;;;4.32;48.61;96985.31;5051821;28;20434;-62
2021/03/08 09:22:27;;;;;;;29.13;18.80;;;;;;;5.37;47.02;96981.41;5052049;28;20412;-65
2021/03/08 09:25:13;;;;;;;27.73;18.90;;;;;;;5.02;47.66;96988.53;5051731;28;20470;-65
2021/03/08 09:27:46;;;;;;;30.50;18.57;;;;;;;5.22;47.11;96993.88;5052227;28;20501;-65
2021/03/08 09:30:22;;;;;;;26.40;18.67;;;;;;;5.73;45.66;96987.16;5051891;28;20578;-66
2021/03/08 09:33:05;;;;;;;23.73;16.20;;;;;;;5.88;45.14;96985.06;5050278;28;20410;-65
2021/03/08 09:35:37;;;;;;;23.07;17.23;;;;;;;6.25;44.61;96988.97;5052079;28;20409;-64
2021/03/08 09:38:05;;;;;;;25.60;17.30;;;;;;;6.30;44.61;96986.81;5052472;28;21031;-64
2021/03/08 09:40:33;;;;;;;23.80;17.00;;;;;;;6.26;43.80;96994.06;5052447;28;20877;-65
2021/03/08 09:42:59;;;;;;;28.00;18.03;;;;;;;6.62;43.22;96978.00;5059825;28;20487;-65
2021/03/08 09:45:31;;;;;;;21.47;15.80;;;;;;;6.69;42.99;96986.09;5050502;28;20506;-65
2021/03/08 09:47:58;;;;;;;24.00;17.00;;;;;;;6.72;42.53;96984.06;5050560;28;20773;-66
2021/03/08 09:50:37;;;;;;;24.90;15.70;;;;;;;5.49;44.11;96996.00;5052021;28;20963;-67
2021/03/08 09:53:03;;;;;;;22.93;16.10;;;;;;;6.53;42.50;96978.78;5051368;28;20414;-66
2021/03/08 09:55:34;;;;;;;24.00;16.00;;;;;;;6.64;42.61;96981.28;5051265;28;20433;-67
2021/03/08 09:58:16;;;;;;;18.70;15.40;;;;;;;7.11;41.87;96975.47;5051618;28;20509;-63
2021/03/08 10:00:48;;;;;;;20.40;15.33;;;;;;;6.99;41.66;96976.56;5052685;28;20805;-63
2021/03/08 10:03:14;;;;;;;21.20;15.97;;;;;;;7.19;40.48;96975.63;5060566;28;20448;-66
2021/03/08 10:05:45;;;;;;;21.17;15.43;;;;;;;6.91;41.65;96983.28;5051657;28;20417;-66
2021/03/08 10:08:12;;;;;;;27.30;15.33;;;;;;;7.48;40.27;96982.63;5052235;28;20436;-66
2021/03/08 10:10:49;;;;;;;22.50;15.03;;;;;;;7.33;40.99;96974.41;5052252;28;20434;-65
2021/03/08 10:13:16;;;;;;;21.90;15.90;;;;;;;7.11;41.02;96970.28;5044934;28;20516;-65
2021/03/08 10:15:46;;;;;;;20.43;14.63;;;;;;;7.37;40.49;96975.75;5050890;28;21036;-65
2021/03/08 10:18:18;;;;;;;20.10;15.23;;;;;;;6.86;41.23;96969.84;5057455;28;20414;-65
2021/03/08 10:20:58;;;;;;;19.27;14.10;;;;;;;6.78;41.11;96967.09;5051429;28;20439;-65
2021/03/08 10:23:28;;;;;;;25.47;14.73;;;;;;;6.34;42.04;96967.38;5052073;28;20468;-64
2021/03/08 10:26:04;;;;;;;19.87;14.27;;;;;;;7.16;40.30;96975.06;5051019;28;20425;-66
2021/03/08 10:28:44;;;;;;;17.33;13.03;;;;;;;7.19;40.53;96970.41;5049585;28;20429;-65
2021/03/08 10:31:23;;;;;;;21.87;14.70;;;;;;;7.29;39.94;96973.00;5043597;28;20445;-65
2021/03/08 10:33:58;;;;;;;21.17;13.53;;;;;;;7.19;40.51;96980.81;5051040;28;20921;-65
2021/03/08 10:36:25;;;;;;;16.57;13.60;;;;;;;7.76;39.11;96976.69;5065117;28;20458;-65
2021/03/08 10:38:56;;;;;;;26.93;13.57;;;;;;;7.87;38.09;96978.31;5050104;28;20449;-64
2021/03/08 10:41:23;;;;;;;23.03;13.80;;;;;;;8.03;38.36;96972.50;5056214;28;20416;-65
2021/03/08 10:43:48;;;;;;;20.27;13.37;;;;;;;7.57;37.93;96974.91;5054731;28;20429;-66
2021/03/08 10:46:14;;;;;;;16.57;12.83;;;;;;;7.00;39.48;96978.22;5051528;28;20483;-66
2021/03/08 10:48:59;;;;;;;18.87;12.00;;;;;;;7.66;37.55;96967.09;5033892;28;20176;-65
2021/03/08 10:51:26;;;;;;;19.50;12.23;;;;;;;7.73;37.24;96967.34;5045351;28;20607;-65
2021/03/08 10:54:02;;;;;;;21.27;12.20;;;;;;;7.90;37.54;96965.00;5083039;28;20461;-66
2021/03/08 10:56:29;;;;;;;14.37;10.37;;;;;;;7.77;36.87;96966.13;5051142;28;20457;-64
2021/03/08 10:58:56;;;;;;;15.00;10.63;;;;;;;7.77;37.22;96960.91;5053800;28;20454;-65
2021/03/08 11:01:23;;;;;;;16.63;10.67;;;;;;;8.15;36.16;96971.34;5057190;28;20421;-64
2021/03/08 11:03:48;;;;;;;14.37;10.60;;;;;;;8.10;35.76;96971.78;5052450;28;20428;-65
2021/03/08 11:06:15;;;;;;;17.17;10.50;;;;;;;8.05;35.71;96970.56;5049001;28;20414;-64
2021/03/08 11:08:54;;;;;;;14.90;11.03;;;;;;;7.76;35.82;96969.69;5050591;28;20206;-64
2021/03/08 11:11:28;;;;;;;15.23;11.00;;;;;;;7.19;37.41;96970.41;5049605;28;20417;-63
2021/03/08 11:14:07;;;;;;;12.57;9.50;;;;;;;8.11;35.23;96970.81;5050229;28;20444;-65
2021/03/08 11:16:34;;;;;;;12.60;9.10;;;;;;;7.97;35.16;96968.66;5033319;28;20568;-64
2021/03/08 11:19:18;;;;;;;12.20;9.47;;;;;;;7.57;35.37;96967.94;5050555;28;20421;-65
2021/03/08 11:21:45;;;;;;;13.50;9.17;;;;;;;8.12;35.33;96972.47;5050090;28;20464;-63
2021/03/08 11:24:19;;;;;;;15.40;9.30;;;;;;;8.17;34.64;96977.25;5051369;28;20898;-66
2021/03/08 11:27:10;;;;;;;16.40;10.90;;;;;;;8.03;36.01;96973.34;5050994;28;20430;-65
2021/03/08 11:29:36;;;;;;;16.83;11.83;;;;;;;8.27;34.77;96980.66;5051537;28;20440;-65
2021/03/08 11:32:02;;;;;;;14.27;10.80;;;;;;;8.29;35.41;96970.09;5055401;28;20432;-65
2021/03/08 11:34:35;;;;;;;15.40;11.77;;;;;;;8.46;34.76;96979.75;5070608;28;20450;-66
2021/03/08 11:37:17;;;;;;;22.03;10.93;;;;;;;8.64;34.49;96976.41;5064396;28;20482;-66